Time;durP1;ratioP1;P1;durP2;ratioP2;P2;SDS_P1;SDS_P2;PMS_P1;PMS_P2;Temp;Humidity;BMP_temperature;BMP_pressure;BME280_temperature;BME280_humidity;BME280_pressure;Samples;Min_cycle;Max_cycle;Signal;HPM_P1;HPM_P2
2022/03/23 00:01:06;;;;;;;93.17;51.53;;;3.30;1.00;;;;;;5114911;28;20040;-77
2022/03/23 00:03:34;;;;;;;88.37;50.27;;;3.20;1.00;;;;;;5115090;28;20037;-76
2022/03/23 00:06:01;;;;;;;115.90;59.60;;;3.20;1.00;;;;;;5115249;28;20039;-75
2022/03/23 00:08:27;;;;;;;96.93;53.10;;;3.20;1.00;;;;;;5114921;28;20043;-75
2022/03/23 00:10:53;;;;;;;106.80;55.50;;;3.30;1.00;;;;;;5131735;28;20138;-80
2022/03/23 00:13:19;;;;;;;131.30;61.60;;;3.20;1.00;;;;;;5114917;28;20050;-80
2022/03/23 00:15:45;;;;;;;103.37;53.73;;;3.20;1.00;;;;;;5115017;28;20053;-80
2022/03/23 00:18:12;;;;;;;111.63;58.57;;;3.10;1.00;;;;;;5132263;28;20469;-80
2022/03/23 00:20:39;;;;;;;102.80;55.20;;;3.10;1.00;;;;;;5132118;28;20047;-76
2022/03/23 00:23:05;;;;;;;123.90;58.33;;;3.00;1.00;;;;;;5131663;28;20035;-80
2022/03/23 00:25:31;;;;;;;114.20;55.30;;;2.90;1.00;;;;;;5114760;28;20549;-76
2022/03/23 00:27:57;;;;;;;92.60;49.27;;;2.90;1.00;;;;;;5132085;28;20397;-75
2022/03/23 00:30:23;;;;;;;99.13;50.90;;;2.80;1.00;;;;;;5131699;28;20039;-80
2022/03/23 00:32:49;;;;;;;109.13;54.23;;;2.70;1.00;;;;;;5116690;27;20054;-75
2022/03/23 00:35:15;;;;;;;152.80;69.23;;;2.60;1.00;;;;;;5135435;27;20115;-80
2022/03/23 00:37:43;;;;;;;112.70;57.67;;;2.60;1.30;;;;;;5135389;27;20122;-81
2022/03/23 00:40:09;;;;;;;131.90;66.67;;;2.60;25.60;;;;;;5135390;27;20050;-80
2022/03/23 00:42:35;;;;;;;148.90;69.87;;;2.60;46.90;;;;;;5135258;27;20039;-77
2022/03/23 00:45:04;;;;;;;159.23;71.53;;;2.70;51.60;;;;;;5135215;27;20039;-80
2022/03/23 00:47:30;;;;;;;157.80;70.93;;;2.70;60.60;;;;;;5135135;27;20051;-75
2022/03/23 00:49:56;;;;;;;118.17;59.70;;;2.70;67.20;;;;;;5118162;27;20047;-76
2022/03/23 00:52:21;;;;;;;120.63;62.13;;;2.60;67.80;;;;;;5135220;27;20119;-76
2022/03/23 00:54:47;;;;;;;151.70;70.57;;;2.60;60.30;;;;;;5135332;27;20043;-80
2022/03/23 00:57:13;;;;;;;162.77;76.07;;;2.70;67.60;;;;;;5134866;27;20077;-75
2022/03/23 00:59:39;;;;;;;175.83;83.53;;;2.80;83.70;;;;;;5117953;27;20047;-79
2022/03/23 01:02:05;;;;;;;131.77;65.07;;;3.00;98.20;;;;;;5117769;27;20103;-76
2022/03/23 01:04:31;;;;;;;138.50;66.60;;;3.10;99.90;;;;;;5134849;27;20122;-80
2022/03/23 01:06:58;;;;;;;116.93;57.97;;;3.00;96.60;;;;;;5134740;27;20051;-75
2022/03/23 01:09:25;;;;;;;105.17;56.70;;;2.90;79.30;;;;;;5134700;27;20047;-80
2022/03/23 01:11:52;;;;;;;117.50;58.33;;;2.80;72.60;;;;;;5134593;27;20059;-75
2022/03/23 01:14:19;;;;;;;102.07;53.23;;;2.70;68.80;;;;;;5134631;27;20039;-80
2022/03/23 01:16:45;;;;;;;132.37;61.37;;;2.60;63.40;;;;;;5117715;27;20624;-75
2022/03/23 01:19:12;;;;;;;95.30;53.30;;;2.50;48.30;;;;;;5134582;27;20047;-75
2022/03/23 01:21:38;;;;;;;99.70;52.77;;;2.50;33.90;;;;;;5117185;27;20050;-80
2022/03/23 01:24:06;;;;;;;161.20;71.60;;;2.40;37.80;;;;;;5100563;27;20501;-76
2022/03/23 01:26:32;;;;;;;117.03;60.07;;;2.30;49.40;;;;;;5134424;27;20066;-80
2022/03/23 01:28:57;;;;;;;182.40;72.63;;;2.30;58.70;;;;;;5117527;27;20079;-76
2022/03/23 01:31:23;;;;;;;126.57;59.47;;;2.30;59.70;;;;;;5100178;27;20079;-80
2022/03/23 01:33:49;;;;;;;147.67;68.40;;;2.30;73.80;;;;;;5100402;27;20359;-80
2022/03/23 01:36:15;;;;;;;152.23;71.83;;;2.30;83.20;;;;;;5117071;27;20480;-80
2022/03/23 01:38:40;;;;;;;204.80;84.90;;;2.40;95.10;;;;;;5134629;27;20088;-81
2022/03/23 01:41:06;;;;;;;194.23;78.63;;;2.40;99.90;;;;;;5134040;27;20047;-76
2022/03/23 01:43:33;;;;;;;182.70;76.73;;;2.40;99.90;;;;;;5117094;27;20125;-80
2022/03/23 01:46:00;;;;;;;110.03;55.17;;;2.50;99.90;;;;;;5134135;27;20078;-76
2022/03/23 01:48:25;;;;;;;326.83;84.33;;;2.40;99.90;;;;;;5133986;27;20043;-80
2022/03/23 01:50:51;;;;;;;156.37;67.87;;;2.30;99.90;;;;;;5116909;27;20399;-80
2022/03/23 01:53:17;;;;;;;120.03;59.70;;;2.30;99.90;;;;;;5117094;27;20052;-75
2022/03/23 01:55:43;;;;;;;186.30;79.97;;;2.30;99.90;;;;;;5133923;27;20043;-76
2022/03/23 01:58:10;;;;;;;156.80;71.10;;;2.30;99.90;;;;;;5116752;27;20160;-76
2022/03/23 02:00:36;;;;;;;240.57;81.07;;;2.30;99.90;;;;;;5134007;27;20047;-75
2022/03/23 02:03:03;;;;;;;177.17;68.00;;;2.30;99.90;;;;;;5133608;27;20046;-80
2022/03/23 02:05:28;;;;;;;117.30;55.60;;;2.30;99.90;;;;;;5133646;27;20078;-75
2022/03/23 02:07:57;;;;;;;101.23;51.60;;;2.20;99.90;;;;;;5116751;27;20529;-80
2022/03/23 02:10:23;;;;;;;292.07;87.50;;;2.00;99.90;;;;;;5133240;27;20054;-80
2022/03/23 02:12:49;;;;;;;281.17;84.03;;;2.10;99.90;;;;;;5116218;27;20062;-75
2022/03/23 02:15:17;;;;;;;127.50;60.40;;;2.20;99.90;;;;;;5116333;27;20608;-79
2022/03/23 02:17:44;;;;;;;172.27;73.67;;;2.10;99.90;;;;;;5116569;27;20511;-80
2022/03/23 02:20:11;;;;;;;173.37;77.57;;;2.00;99.90;;;;;;5134105;27;20404;-80
2022/03/23 02:22:37;;;;;;;214.17;86.90;;;2.20;99.90;;;;;;5099829;27;20119;-80
2022/03/23 02:25:06;;;;;;;233.70;91.10;;;2.30;99.90;;;;;;5116427;27;20079;-75
2022/03/23 02:27:32;;;;;;;182.60;80.23;;;2.40;99.90;;;;;;5116968;27;20405;-75
2022/03/23 02:29:58;;;;;;;166.90;69.67;;;2.50;99.90;;;;;;5133233;27;20391;-75
2022/03/23 02:32:24;;;;;;;168.80;73.87;;;2.40;99.90;;;;;;5133243;27;20043;-76
2022/03/23 02:34:50;;;;;;;186.87;78.67;;;2.30;99.90;;;;;;5133712;27;20043;-80
2022/03/23 02:37:16;;;;;;;206.60;81.30;;;2.40;99.90;;;;;;5115954;27;20039;-80
2022/03/23 02:39:42;;;;;;;170.20;74.33;;;2.50;99.90;;;;;;5116300;27;20439;-80
2022/03/23 02:42:08;;;;;;;191.67;80.77;;;2.60;99.90;;;;;;5133077;27;20043;-75
2022/03/23 02:44:34;;;;;;;185.97;80.37;;;2.50;99.90;;;;;;5116101;27;20042;-75
2022/03/23 02:47:01;;;;;;;176.70;74.53;;;2.60;99.90;;;;;;5098956;27;20485;-80
2022/03/23 02:49:27;;;;;;;170.10;74.10;;;2.40;99.90;;;;;;5133040;27;20051;-76
2022/03/23 02:51:53;;;;;;;157.87;69.33;;;2.40;99.90;;;;;;5115627;27;20043;-80
2022/03/23 03:02:59;;;;;;;111.97;53.65;;;2.30;99.90;;;;;;5132629;27;20095;-76
2022/03/23 03:05:25;;;;;;;165.30;67.73;;;2.10;99.90;;;;;;5115443;27;20125;-75
2022/03/23 03:10:35;;;;;;;312.47;84.73;;;2.00;99.90;;;;;;5132617;27;20446;-80
2022/03/23 03:13:01;;;;;;;174.17;70.13;;;1.90;99.90;;;;;;5132391;27;20051;-76
2022/03/23 03:15:27;;;;;;;131.50;59.67;;;1.80;99.90;;;;;;5132831;27;20051;-80
2022/03/23 03:17:57;;;;;;;276.53;82.73;;;1.70;99.90;;;;;;5132525;28;20047;-80
2022/03/23 03:20:23;;;;;;;167.47;64.30;;;1.60;99.90;;;;;;5132744;28;20500;-75
2022/03/23 03:22:49;;;;;;;172.50;69.70;;;1.60;99.90;;;;;;5132675;28;20047;-75
2022/03/23 03:25:16;;;;;;;168.50;72.37;;;1.60;99.90;;;;;;5132320;28;20095;-80
2022/03/23 03:27:43;;;;;;;149.17;62.83;;;1.60;99.90;;;;;;5132382;28;20043;-75
2022/03/23 03:30:11;;;;;;;153.27;66.20;;;1.60;99.90;;;;;;5115179;28;20047;-75
2022/03/23 03:32:38;;;;;;;181.87;70.90;;;1.60;99.90;;;;;;5132224;28;20051;-80
2022/03/23 03:35:05;;;;;;;160.97;66.73;;;1.60;99.90;;;;;;5132529;28;20417;-75
2022/03/23 03:37:31;;;;;;;154.87;66.23;;;1.50;99.90;;;;;;5115116;28;20042;-80
2022/03/23 03:39:57;;;;;;;159.90;66.93;;;1.50;99.90;;;;;;5098287;28;20039;-79
2022/03/23 03:42:23;;;;;;;167.97;67.53;;;1.40;99.90;;;;;;5132177;28;20042;-80
2022/03/23 03:44:50;;;;;;;152.07;67.23;;;1.40;99.90;;;;;;5132304;28;20039;-80
2022/03/23 03:47:18;;;;;;;209.10;77.87;;;1.50;99.90;;;;;;5132245;28;20051;-80
2022/03/23 03:49:44;;;;;;;175.43;70.80;;;1.50;99.90;;;;;;5132130;28;20126;-76
2022/03/23 03:52:09;;;;;;;168.23;65.77;;;1.50;99.90;;;;;;5132086;28;20494;-75
2022/03/23 03:54:35;;;;;;;134.83;59.57;;;1.50;99.90;;;;;;5115306;28;20088;-75
2022/03/23 03:57:01;;;;;;;150.70;61.83;;;1.50;99.90;;;;;;5097892;28;20039;-80
2022/03/23 03:59:27;;;;;;;172.80;64.97;;;1.50;99.90;;;;;;5132207;28;20076;-80
2022/03/23 04:01:53;;;;;;;130.63;55.00;;;1.40;99.90;;;;;;5115032;28;20074;-75
2022/03/23 04:04:19;;;;;;;234.93;73.87;;;1.30;99.90;;;;;;5132120;28;20527;-75
2022/03/23 04:06:44;;;;;;;200.33;72.23;;;1.30;99.90;;;;;;5132214;27;20040;-80
2022/03/23 04:09:10;;;;;;;165.17;64.07;;;1.20;99.90;;;;;;5135854;27;20043;-75
2022/03/23 04:11:36;;;;;;;144.87;57.13;;;1.30;99.90;;;;;;5118475;27;20058;-75
2022/03/23 04:14:02;;;;;;;136.17;58.00;;;1.20;99.90;;;;;;5118718;27;20169;-78
2022/03/23 04:16:28;;;;;;;127.37;56.90;;;1.20;99.90;;;;;;5118792;27;20397;-75
2022/03/23 04:18:53;;;;;;;177.03;71.47;;;1.20;99.90;;;;;;5118857;27;20039;-75
2022/03/23 04:21:19;;;;;;;177.53;70.17;;;1.30;99.90;;;;;;5118846;27;20130;-75
2022/03/23 04:23:45;;;;;;;171.37;68.47;;;1.30;99.90;;;;;;5135924;27;20073;-80
2022/03/23 04:26:11;;;;;;;149.03;63.30;;;1.30;99.90;;;;;;5135869;27;20466;-80
2022/03/23 04:28:36;;;;;;;163.13;69.73;;;1.30;99.90;;;;;;5118517;27;20050;-80
2022/03/23 04:31:02;;;;;;;176.60;74.37;;;1.30;99.90;;;;;;5118702;27;20080;-80
2022/03/23 04:33:29;;;;;;;190.27;73.53;;;1.40;99.90;;;;;;5118970;27;20039;-80
2022/03/23 04:35:55;;;;;;;174.67;68.90;;;1.40;99.90;;;;;;5135890;27;20046;-80
2022/03/23 04:38:21;;;;;;;139.10;63.60;;;1.30;99.90;;;;;;5118719;27;20043;-76
2022/03/23 04:40:46;;;;;;;131.43;58.27;;;1.30;99.90;;;;;;5135362;27;20040;-76
2022/03/23 04:43:12;;;;;;;133.47;58.40;;;1.30;99.90;;;;;;5135330;27;20096;-80
2022/03/23 04:45:39;;;;;;;134.33;62.57;;;1.20;99.90;;;;;;5135253;27;20039;-81
2022/03/23 04:48:05;;;;;;;144.83;64.53;;;1.20;99.90;;;;;;5135029;27;20108;-76
2022/03/23 04:50:31;;;;;;;138.17;64.90;;;1.20;99.90;;;;;;5118216;27;20043;-76
2022/03/23 04:52:57;;;;;;;158.67;72.47;;;1.20;99.90;;;;;;5135137;27;20133;-80
2022/03/23 04:55:23;;;;;;;172.30;70.50;;;1.20;99.90;;;;;;5117932;27;20100;-80
2022/03/23 04:57:48;;;;;;;149.77;66.93;;;1.30;99.90;;;;;;5118170;27;20053;-75
2022/03/23 05:00:16;;;;;;;175.43;71.43;;;1.30;99.90;;;;;;5135244;27;20079;-80
2022/03/23 05:02:44;;;;;;;139.70;62.60;;;1.30;99.90;;;;;;5117705;27;20043;-80
2022/03/23 05:05:14;;;;;;;119.63;60.13;;;1.40;99.90;;;;;;5117958;27;20451;-75
2022/03/23 05:07:41;;;;;;;177.73;73.83;;;1.30;99.90;;;;;;5118241;27;20080;-80
2022/03/23 05:10:08;;;;;;;158.53;71.50;;;1.30;99.90;;;;;;5134830;27;20054;-76
2022/03/23 05:12:38;;;;;;;131.10;60.37;;;1.30;99.90;;;;;;5100688;27;20402;-77
2022/03/23 05:15:06;;;;;;;199.50;80.27;;;1.40;99.90;;;;;;5134806;27;20409;-75
2022/03/23 05:17:38;;;;;;;187.20;73.37;;;1.40;99.90;;;;;;5134187;27;20104;-76
2022/03/23 05:20:06;;;;;;;129.47;58.93;;;1.40;99.90;;;;;;5117629;27;20039;-80
2022/03/23 05:22:32;;;;;;;127.10;55.73;;;1.40;99.90;;;;;;5134584;27;20088;-79
2022/03/23 05:24:58;;;;;;;161.13;67.50;;;1.30;99.90;;;;;;5134591;27;20054;-76
2022/03/23 05:27:24;;;;;;;133.27;63.27;;;1.30;99.90;;;;;;5117155;27;20047;-80
2022/03/23 05:29:50;;;;;;;153.53;68.77;;;1.30;99.90;;;;;;5117157;27;20458;-80
2022/03/23 05:32:16;;;;;;;122.40;58.30;;;1.30;99.90;;;;;;5116832;27;20047;-80
2022/03/23 05:34:51;;;;;;;126.37;57.70;;;1.30;99.90;;;;;;5099932;27;20054;-76
2022/03/23 05:37:17;;;;;;;136.13;64.83;;;1.20;99.90;;;;;;5133794;27;20050;-80
2022/03/23 05:39:44;;;;;;;132.03;59.77;;;1.20;99.90;;;;;;5116843;27;20088;-80
2022/03/23 05:42:10;;;;;;;139.87;61.27;;;1.30;99.90;;;;;;5133889;27;20083;-76
2022/03/23 05:44:36;;;;;;;110.20;57.57;;;1.30;99.90;;;;;;5134024;27;20093;-76
2022/03/23 05:47:04;;;;;;;145.70;62.63;;;1.30;99.90;;;;;;5116779;27;20046;-76
2022/03/23 05:49:30;;;;;;;124.90;58.40;;;1.30;99.90;;;;;;5133760;27;20054;-80
2022/03/23 05:51:56;;;;;;;142.53;61.83;;;1.30;99.90;;;;;;5099586;27;20115;-76
2022/03/23 05:54:22;;;;;;;116.80;55.70;;;1.30;99.90;;;;;;5116665;27;20500;-78
2022/03/23 05:56:49;;;;;;;59.37;39.07;;;1.40;99.90;;;;;;5116746;27;20423;-76
2022/03/23 05:59:15;;;;;;;71.80;41.53;;;1.40;99.90;;;;;;5134271;27;20116;-80
2022/03/23 06:01:41;;;;;;;71.07;40.83;;;1.40;99.90;;;;;;5082813;27;20046;-80
2022/03/23 06:04:07;;;;;;;66.67;39.57;;;1.30;99.90;;;;;;5099585;27;20039;-76
2022/03/23 06:06:33;;;;;;;110.20;44.47;;;1.40;99.90;;;;;;5133367;27;20072;-76
2022/03/23 06:08:58;;;;;;;66.83;39.03;;;1.40;99.90;;;;;;5133582;27;20047;-75
2022/03/23 06:11:24;;;;;;;75.07;41.47;;;1.50;99.90;;;;;;5116156;27;20090;-80
2022/03/23 06:13:50;;;;;;;96.50;49.77;;;1.50;99.90;;;;;;5116458;27;20055;-80
2022/03/23 06:16:17;;;;;;;75.43;44.47;;;1.60;99.90;;;;;;5116175;27;20039;-76
2022/03/23 06:18:43;;;;;;;103.10;53.33;;;1.60;99.90;;;;;;5133520;27;20050;-76
2022/03/23 06:21:08;;;;;;;99.33;55.27;;;1.70;99.90;;;;;;5133096;27;20489;-80
2022/03/23 06:23:34;;;;;;;101.10;55.77;;;1.80;99.90;;;;;;5116561;27;20545;-80
2022/03/23 06:26:00;;;;;;;88.13;51.50;;;1.80;99.90;;;;;;5116267;27;20134;-75
2022/03/23 06:28:26;;;;;;;113.03;56.83;;;1.80;99.90;;;;;;5133102;27;20050;-76
2022/03/23 06:30:53;;;;;;;99.47;59.40;;;1.90;99.90;;;;;;5132444;27;20240;-76
2022/03/23 06:33:19;;;;;;;142.63;64.83;;;2.10;99.90;;;;;;5115698;27;20043;-80
2022/03/23 06:35:45;;;;;;;103.83;56.47;;;2.20;99.90;;;;;;5132996;27;20122;-75
2022/03/23 06:38:14;;;;;;;144.33;70.97;;;2.30;99.90;;;;;;5132847;27;20043;-80
2022/03/23 06:40:41;;;;;;;138.63;71.90;;;2.50;99.90;;;;;;5115805;27;20115;-75
2022/03/23 06:43:06;;;;;;;117.50;64.57;;;2.60;99.90;;;;;;5132885;27;20121;-80
2022/03/23 06:45:32;;;;;;;123.70;65.67;;;2.70;99.90;;;;;;5133160;27;20126;-80
2022/03/23 06:47:58;;;;;;;136.47;68.77;;;2.80;99.90;;;;;;5115741;27;20134;-80
2022/03/23 06:50:25;;;;;;;186.53;82.33;;;3.00;99.90;;;;;;5132714;27;20039;-76
2022/03/23 06:52:51;;;;;;;169.57;80.80;;;3.10;99.90;;;;;;5115671;27;20546;-80
2022/03/23 06:55:16;;;;;;;145.27;72.67;;;3.30;99.90;;;;;;5132985;27;20043;-80
2022/03/23 06:57:42;;;;;;;164.63;78.07;;;3.40;99.90;;;;;;5098526;27;20070;-76
2022/03/23 07:00:15;;;;;;;176.80;81.47;;;3.60;99.90;;;;;;5115726;27;20554;-80
2022/03/23 07:02:42;;;;;;;175.90;86.37;;;3.80;99.90;;;;;;5115572;27;20077;-80
2022/03/23 07:05:09;;;;;;;194.30;91.23;;;4.00;99.90;;;;;;5132545;27;20285;-76
2022/03/23 07:07:35;;;;;;;179.70;90.77;;;4.20;99.90;;;;;;5115749;27;20055;-80
2022/03/23 07:10:05;;;;;;;168.17;91.07;;;4.40;99.90;;;;;;5132454;27;20129;-80
2022/03/23 07:12:31;;;;;;;188.50;92.47;;;4.70;99.90;;;;;;5115358;27;20091;-75
2022/03/23 07:14:57;;;;;;;168.77;85.90;;;4.90;99.90;;;;;;5132671;27;20509;-80
2022/03/23 07:17:23;;;;;;;174.53;95.03;;;5.10;99.90;;;;;;5132204;27;20057;-76
2022/03/23 07:19:49;;;;;;;152.52;84.93;;;5.30;99.90;;;;;;5115232;28;20076;-76
2022/03/23 07:22:16;;;;;;;155.05;86.78;;;5.60;99.90;;;;;;5132144;28;20035;-80
2022/03/23 07:24:42;;;;;;;141.85;82.28;;;5.80;99.90;;;;;;5132461;28;20371;-80
2022/03/23 07:27:08;;;;;;;117.25;74.10;;;6.00;99.90;;;;;;5132305;28;20069;-76
2022/03/23 07:29:37;;;;;;;119.45;73.32;;;6.20;99.90;;;;;;5132366;28;20390;-76
2022/03/23 07:32:03;;;;;;;113.35;67.40;;;6.40;99.90;;;;;;5132592;28;20397;-76
2022/03/23 07:34:29;;;;;;;88.97;59.53;;;6.70;99.90;;;;;;5132455;28;20055;-76
2022/03/23 07:36:55;;;;;;;96.57;58.95;;;6.90;99.90;;;;;;5132080;28;20148;-76
2022/03/23 07:39:23;;;;;;;89.63;57.15;;;7.20;99.90;;;;;;5115088;28;20408;-76
2022/03/23 07:41:50;;;;;;;82.88;55.28;;;7.40;99.90;;;;;;5117094;27;20064;-76
2022/03/23 07:44:18;;;;;;;82.05;50.80;;;7.60;99.90;;;;;;5136369;27;20409;-80
2022/03/23 07:46:47;;;;;;;80.60;49.75;;;7.90;99.90;;;;;;5136414;27;20501;-76
2022/03/23 07:49:14;;;;;;;73.03;47.00;;;8.10;99.90;;;;;;5119116;27;20047;-76
2022/03/23 07:51:40;;;;;;;66.50;45.38;;;8.20;99.90;;;;;;5118952;27;20043;-80
2022/03/23 07:54:07;;;;;;;69.32;45.22;;;8.40;99.90;;;;;;5102383;27;20392;-80
2022/03/23 07:56:34;;;;;;;61.83;43.25;;;8.60;99.90;;;;;;5136011;27;20070;-76
2022/03/23 07:58:59;;;;;;;61.70;41.38;;;8.70;99.90;;;;;;5135988;27;20204;-81
2022/03/23 08:01:25;;;;;;;64.25;41.15;;;9.00;57.20;;;;;;5135801;27;20496;-76
2022/03/23 08:03:51;;;;;;;56.85;40.28;;;9.20;10.60;;;;;;5136369;27;20081;-77
2022/03/23 08:06:17;;;;;;;55.50;39.47;;;9.30;1.00;;;;;;5102025;27;20091;-81
2022/03/23 08:08:43;;;;;;;57.67;38.05;;;9.50;1.00;;;;;;5101893;27;20043;-76
2022/03/23 08:11:09;;;;;;;59.10;40.08;;;9.60;1.00;;;;;;5101659;27;20067;-80
2022/03/23 08:13:35;;;;;;;55.60;39.95;;;9.70;1.00;;;;;;5135981;27;20055;-76
2022/03/23 08:16:03;;;;;;;52.30;35.55;;;9.90;1.00;;;;;;5118593;27;20186;-81
2022/03/23 08:18:28;;;;;;;55.03;38.38;;;10.00;99.90;;;;;;5101743;27;20043;-76
2022/03/23 08:20:54;;;;;;;51.35;36.42;;;10.20;99.90;;;;;;5118494;27;20070;-80
2022/03/23 08:23:20;;;;;;;49.78;37.92;;;10.40;99.90;;;;;;5118475;27;20408;-81
2022/03/23 08:25:46;;;;;;;52.85;37.47;;;10.50;99.90;;;;;;5118461;27;20047;-76
2022/03/23 08:28:14;;;;;;;57.72;38.85;;;10.60;99.90;;;;;;5135401;27;20039;-81
2022/03/23 08:30:41;;;;;;;50.30;36.97;;;10.80;97.50;;;;;;5135449;27;20163;-81
2022/03/23 08:33:07;;;;;;;53.60;36.03;;;10.90;50.30;;;;;;5118260;27;20039;-76
2022/03/23 08:35:34;;;;;;;50.42;36.38;;;11.00;1.00;;;;;;5135651;27;20511;-81
2022/03/23 08:38:00;;;;;;;51.38;35.75;;;11.20;1.00;;;;;;5135291;27;20047;-76
2022/03/23 08:40:26;;;;;;;52.42;35.38;;;11.30;1.00;;;;;;5135296;27;20039;-81
2022/03/23 08:42:52;;;;;;;49.47;35.35;;;11.50;1.00;;;;;;5118221;27;20051;-76
2022/03/23 08:45:18;;;;;;;50.47;35.90;;;11.60;99.90;;;;;;5118040;27;20043;-80
2022/03/23 08:47:45;;;;;;;45.97;33.60;;;11.80;99.90;;;;;;5135448;27;20390;-81
2022/03/23 08:50:12;;;;;;;44.90;33.30;;;11.80;99.90;;;;;;5134975;27;20043;-80
2022/03/23 08:52:39;;;;;;;51.58;33.78;;;12.10;99.90;;;;;;5134072;27;20046;-76
2022/03/23 08:55:09;;;;;;;48.35;33.55;;;12.30;99.90;;;;;;5135177;27;20430;-81
2022/03/23 08:57:36;;;;;;;48.83;34.90;;;12.40;81.30;;;;;;5134920;27;20046;-81
2022/03/23 09:00:05;;;;;;;52.20;34.78;;;12.50;73.50;;;;;;5134857;27;20047;-76
2022/03/23 09:02:31;;;;;;;48.50;33.65;;;12.70;49.90;;;;;;5117627;27;20046;-76
2022/03/23 09:04:56;;;;;;;47.88;32.38;;;12.90;46.00;;;;;;5100812;27;20379;-77
2022/03/23 09:07:22;;;;;;;44.60;33.22;;;13.10;1.00;;;;;;5117453;27;20348;-81
2022/03/23 09:09:48;;;;;;;42.08;30.50;;;13.20;1.00;;;;;;5134498;27;20054;-80
2022/03/23 09:12:13;;;;;;;46.53;31.23;;;13.30;99.90;;;;;;5134498;27;20063;-81
2022/03/23 09:14:39;;;;;;;42.75;31.33;;;13.40;99.90;;;;;;5117361;27;20085;-81
2022/03/23 09:17:05;;;;;;;44.97;29.98;;;13.60;99.90;;;;;;5100591;27;20047;-76
2022/03/23 09:19:31;;;;;;;44.00;29.95;;;13.90;99.90;;;;;;5117678;27;20035;-81
2022/03/23 09:21:59;;;;;;;46.28;31.60;;;14.30;99.90;;;;;;5117189;27;20409;-77
2022/03/23 09:24:26;;;;;;;39.78;30.33;;;15.30;99.90;;;;;;5134463;27;20049;-81
2022/03/23 09:26:53;;;;;;;43.00;30.33;;;16.40;46.80;;;;;;5100445;27;20084;-77
2022/03/23 09:29:19;;;;;;;43.78;31.40;;;17.00;1.00;;;;;;5100275;27;20131;-81
2022/03/23 09:31:45;;;;;;;39.63;31.52;;;17.70;1.00;;;;;;5100125;27;20113;-79
2022/03/23 09:34:10;;;;;;;39.05;28.95;;;18.10;1.00;;;;;;5117024;27;20080;-79
2022/03/23 09:39:20;;;;;;;43.33;28.20;;;18.80;99.90;;;;;;5119637;27;20090;-77
2022/03/23 09:41:47;;;;;;;35.83;28.02;;;19.10;99.90;;;;;;5100071;27;20043;-77
2022/03/23 09:44:13;;;;;;;34.25;25.60;;;19.40;99.90;;;;;;5134321;27;20231;-77
2022/03/23 09:46:39;;;;;;;31.05;24.00;;;19.50;99.90;;;;;;5116803;27;20046;-77
2022/03/23 09:49:06;;;;;;;29.92;23.50;;;19.90;99.90;;;;;;5099677;27;20130;-77
2022/03/23 09:51:34;;;;;;;27.13;23.60;;;20.20;99.90;;;;;;5134019;27;20533;-82
2022/03/23 09:54:01;;;;;;;34.95;24.33;;;20.40;99.90;;;;;;5116813;27;20053;-77
2022/03/23 09:56:27;;;;;;;29.67;23.63;;;20.50;99.90;;;;;;5134277;27;20110;-82
2022/03/23 09:58:53;;;;;;;27.85;22.83;;;20.90;99.90;;;;;;5133507;27;20043;-82
2022/03/23 10:01:28;;;;;;;31.23;22.75;;;20.80;99.90;;;;;;5133784;27;20126;-77
2022/03/23 10:04:09;;;;;;;26.55;21.25;;;21.00;99.90;;;;;;5116632;27;20047;-77
2022/03/23 10:06:48;;;;;;;28.70;22.20;;;21.20;99.90;;;;;;5133885;27;20404;-82
2022/03/23 10:09:26;;;;;;;29.38;22.75;;;21.30;99.90;;;;;;5133441;27;20092;-77
2022/03/23 10:12:20;;;;;;;31.98;22.92;;;21.50;99.90;;;;;;5116035;27;20043;-77
2022/03/23 10:15:24;;;;;;;30.10;20.88;;;21.80;99.90;;;;;;5133382;27;20039;-82
2022/03/23 10:18:20;;;;;;;23.58;20.13;;;21.90;99.90;;;;;;5116316;27;20043;-77
2022/03/23 10:20:47;;;;;;;23.88;19.52;;;22.00;99.90;;;;;;5133346;27;20100;-82
2022/03/23 10:23:13;;;;;;;25.95;20.00;;;22.10;99.90;;;;;;5116332;27;20075;-82
2022/03/23 10:25:40;;;;;;;26.25;20.58;;;22.20;99.90;;;;;;5133473;27;20082;-82
2022/03/23 10:28:17;;;;;;;24.83;18.60;;;22.40;99.90;;;;;;5099635;27;20482;-81
2022/03/23 10:30:45;;;;;;;20.73;16.73;;;22.30;99.90;;;;;;5133054;27;20122;-78
2022/03/23 10:33:20;;;;;;;20.80;15.15;;;22.20;99.90;;;;;;5133386;27;20051;-82
2022/03/23 10:35:46;;;;;;;17.33;15.45;;;22.30;99.90;;;;;;5132980;27;20073;-82
2022/03/23 10:38:23;;;;;;;19.27;15.50;;;22.40;99.90;;;;;;5133006;27;20104;-79
2022/03/23 10:40:51;;;;;;;17.88;14.93;;;22.60;99.90;;;;;;5116204;27;20496;-78
2022/03/23 10:43:22;;;;;;;18.00;16.08;;;22.70;99.90;;;;;;5132885;27;20054;-77
2022/03/23 10:45:48;;;;;;;18.70;16.35;;;22.70;99.90;;;;;;5132945;27;20037;-82
2022/03/23 10:48:15;;;;;;;17.92;14.90;;;22.80;99.90;;;;;;5115678;27;20435;-77
2022/03/23 10:50:55;;;;;;;23.67;15.82;;;22.80;99.90;;;;;;5132796;27;20129;-82
2022/03/23 10:53:38;;;;;;;19.38;15.77;;;23.20;99.90;;;;;;5132836;27;20039;-77
2022/03/23 10:56:05;;;;;;;19.95;14.73;;;23.50;99.90;;;;;;5115834;27;20625;-77
2022/03/23 10:58:32;;;;;;;19.38;15.45;;;23.50;99.90;;;;;;5116029;27;20535;-77
2022/03/23 11:01:04;;;;;;;19.30;15.30;;;23.70;99.90;;;;;;5132648;27;20122;-77
2022/03/23 11:03:36;;;;;;;21.30;13.75;;;23.70;99.90;;;;;;5115710;27;20131;-77
2022/03/23 11:06:02;;;;;;;19.93;13.90;;;23.80;99.90;;;;;;5115623;28;20039;-77
2022/03/23 11:08:28;;;;;;;20.50;14.32;;;24.00;99.90;;;;;;5132365;27;20073;-78
2022/03/23 11:16:35;;;;;;;19.00;14.32;;;24.00;99.90;;;;;;5131850;27;20062;-82
2022/03/23 11:19:26;;;;;;;15.90;12.05;;;24.00;99.90;;;;;;5098659;28;20053;-82
2022/03/23 11:22:09;;;;;;;23.67;13.57;;;24.20;99.90;;;;;;5132703;28;20100;-83
2022/03/23 11:24:41;;;;;;;18.83;13.23;;;24.10;99.90;;;;;;5132438;28;20047;-82
2022/03/23 11:27:08;;;;;;;;;;;24.00;99.90;;;;;;5098499;28;20035;-82
2022/03/23 11:29:35;;;;;;;15.77;12.13;;;24.10;99.90;;;;;;5115214;28;19935;-77
2022/03/23 11:32:04;;;;;;;19.05;14.15;;;24.30;99.90;;;;;;5098361;28;20130;-78
2022/03/23 11:34:33;;;;;;;21.65;12.32;;;24.40;99.90;;;;;;5132252;28;20130;-82
2022/03/23 11:37:01;;;;;;;23.13;12.38;;;24.40;99.90;;;;;;5132440;28;20358;-83
2022/03/23 11:39:27;;;;;;;16.42;11.38;;;24.20;99.90;;;;;;5115678;28;20057;-76
2022/03/23 11:41:53;;;;;;;21.48;12.05;;;24.20;99.90;;;;;;5132517;28;20084;-78
2022/03/23 11:44:22;;;;;;;19.10;10.35;;;24.30;99.90;;;;;;5115100;28;20035;-82
2022/03/23 11:46:50;;;;;;;22.02;10.05;;;24.70;99.90;;;;;;5132380;28;20047;-82
2022/03/23 11:49:47;;;;;;;21.48;10.82;;;24.80;99.90;;;;;;5115187;28;20489;-82
2022/03/23 11:52:43;;;;;;;19.58;10.77;;;25.10;99.90;;;;;;5132219;28;20047;-83
2022/03/23 11:55:37;;;;;;;21.73;11.02;;;25.00;99.90;;;;;;5132150;28;20126;-82
2022/03/23 11:58:05;;;;;;;18.85;11.45;;;25.00;99.90;;;;;;5128163;28;20051;-82
2022/03/23 12:00:53;;;;;;;19.92;11.45;;;25.00;99.90;;;;;;5114871;28;20043;-83
2022/03/23 12:03:53;;;;;;;19.88;10.30;;;25.10;99.90;;;;;;5131953;28;20084;-77
2022/03/23 12:06:24;;;;;;;18.42;10.13;;;25.10;99.90;;;;;;5078310;28;20049;-77
2022/03/23 12:08:58;;;;;;;22.63;10.75;;;25.30;99.90;;;;;;5098049;28;20047;-82
2022/03/23 12:11:43;;;;;;;19.77;11.57;;;25.10;99.90;;;;;;5131798;28;20081;-77
2022/03/23 12:14:24;;;;;;;17.65;11.10;;;24.30;99.90;;;;;;5131882;28;20054;-77
2022/03/23 12:16:50;;;;;;;19.38;12.38;;;24.70;99.90;;;;;;5132364;28;20536;-77
2022/03/23 12:19:23;;;;;;;18.33;12.02;;;24.80;99.90;;;;;;5132028;28;20035;-77
2022/03/23 12:21:58;;;;;;;19.45;12.15;;;25.00;99.90;;;;;;5131730;28;20047;-77
2022/03/23 12:24:52;;;;;;;21.58;11.55;;;25.20;99.90;;;;;;5114963;28;20493;-82
2022/03/23 12:27:43;;;;;;;20.98;12.43;;;25.10;99.90;;;;;;5131910;27;20126;-82
2022/03/23 12:30:18;;;;;;;21.35;12.80;;;25.40;99.90;;;;;;5135398;27;20386;-77
2022/03/23 12:32:44;;;;;;;18.52;11.65;;;24.30;99.90;;;;;;5135284;27;20071;-77
2022/03/23 12:35:10;;;;;;;17.08;12.77;;;24.60;99.90;;;;;;5135255;27;20129;-77
2022/03/23 12:37:43;;;;;;;17.50;9.57;;;24.80;99.90;;;;;;5135273;27;20044;-77
2022/03/23 12:40:13;;;;;;;19.10;8.00;;;25.20;99.90;;;;;;5118695;27;20050;-78
2022/03/23 12:42:44;;;;;;;14.90;7.10;;;25.00;99.90;;;;;;5135625;27;20640;-77
2022/03/23 12:45:18;;;;;;;16.45;7.45;;;24.90;99.90;;;;;;5135197;27;20059;-78
2022/03/23 12:47:56;;;;;;;18.75;8.90;;;24.90;99.90;;;;;;5135548;27;20043;-83
2022/03/23 12:59:15;;;;;;;15.02;8.95;;;25.00;99.90;;;;;;5134853;27;20047;-77
2022/03/23 13:01:41;;;;;;;14.15;8.90;;;25.00;99.90;;;;;;5115449;27;20036;-83
2022/03/23 13:04:07;;;;;;;16.42;11.00;;;25.00;99.90;;;;;;5116425;27;20408;-77